Bronnicy, Russia
Current Conditions -  °F | °C
As of 5:30 PM on Saturday 22 Nov 2014 (Local Time) from UUDD Reporting Station
Clear Clear  
Wind Chill: 28°   Ceiling: Unl
Heat Index: 32°   Visibility: 6mi
Dew Point: 19°   Wind: 4mph
Humidity: 60%   Direction: 250°WSW
Pressure: 30.39"   Gusts: NA
Location:  55.43°N, 38.27°E
Report Text: UUDD 221430Z 25002MPS 200V340 CAVOK M00/M07 Q1029 3219009582150095 NOSIG
Loading
Personal Weather Stations






























Interactive Weather Map New forecast layout! Learn more

10-Day Weather Forecast

Advertisements
Track Severe Weather on mobile